Time;durP1;ratioP1;P1;durP2;ratioP2;P2;SDS_P1;SDS_P2;PMS_P1;PMS_P2;Temp;Humidity;BMP_temperature;BMP_pressure;BME280_temperature;BME280_humidity;BME280_pressure;Samples;Min_cycle;Max_cycle;Signal;HPM_P1;HPM_P2
2022/07/07 00:01:35;;;;;;;1.65;1.55;;;18.20;91.50;;;;;;4970620;28;20035;-62
2022/07/07 00:04:02;;;;;;;0.20;0.13;;;17.90;91.80;;;;;;4955709;28;20049;-62
2022/07/07 00:06:29;;;;;;;0.00;0.00;;;17.80;91.70;;;;;;4955963;28;20019;-62
2022/07/07 00:08:55;;;;;;;0.00;0.00;;;17.80;91.60;;;;;;4954462;28;20114;-62
2022/07/07 00:11:24;;;;;;;0.15;0.15;;;17.80;91.60;;;;;;4955873;28;20043;-62
2022/07/07 00:13:51;;;;;;;2.90;0.93;;;17.80;91.30;;;;;;4955376;28;20113;-62
2022/07/07 00:16:17;;;;;;;0.00;0.00;;;17.90;90.90;;;;;;4955817;28;20506;-62
2022/07/07 00:18:44;;;;;;;0.00;0.00;;;17.90;90.90;;;;;;4954196;29;20103;-62
2022/07/07 00:21:10;;;;;;;0.55;0.55;;;18.00;91.00;;;;;;4954164;28;20034;-62
2022/07/07 00:23:36;;;;;;;0.10;0.10;;;17.90;91.30;;;;;;4955594;28;20035;-62
2022/07/07 00:26:02;;;;;;;0.03;0.03;;;18.00;91.20;;;;;;4970400;28;20031;-62
2022/07/07 00:28:28;;;;;;;4.95;0.40;;;18.00;91.50;;;;;;4955435;28;20038;-62
2022/07/07 00:30:54;;;;;;;0.00;0.00;;;18.00;91.60;;;;;;4955485;28;20031;-63
2022/07/07 00:33:19;;;;;;;0.30;0.30;;;17.90;92.10;;;;;;4955294;28;20365;-62
2022/07/07 00:35:45;;;;;;;0.13;0.13;;;18.00;92.40;;;;;;4955073;28;20035;-62
2022/07/07 00:38:11;;;;;;;1.27;0.60;;;17.80;92.60;;;;;;4955150;28;20071;-62
2022/07/07 00:40:37;;;;;;;0.10;0.08;;;17.80;93.20;;;;;;4955133;29;20033;-62
2022/07/07 00:43:03;;;;;;;2.88;1.33;;;17.90;93.30;;;;;;4955446;29;20031;-62
2022/07/07 00:45:29;;;;;;;1.20;0.80;;;17.70;93.20;;;;;;4969949;28;20038;-62
2022/07/07 00:47:54;;;;;;;0.70;0.40;;;17.80;93.60;;;;;;4955523;29;20031;-62
2022/07/07 00:50:20;;;;;;;0.50;0.50;;;17.80;93.60;;;;;;4953975;29;20118;-62
2022/07/07 00:52:47;;;;;;;0.25;0.25;;;17.70;93.80;;;;;;4954725;29;20039;-62
2022/07/07 00:55:13;;;;;;;0.15;0.10;;;17.60;94.00;;;;;;4953751;28;20471;-61
2022/07/07 00:57:39;;;;;;;0.00;0.00;;;17.70;94.20;;;;;;4953669;28;20472;-62
2022/07/07 01:00:13;;;;;;;0.38;0.32;;;17.70;94.30;;;;;;4954879;28;20027;-62
2022/07/07 01:02:41;;;;;;;0.10;0.10;;;17.70;94.40;;;;;;4954746;28;20039;-62
2022/07/07 01:05:09;;;;;;;0.20;0.20;;;17.70;94.50;;;;;;4964256;28;20026;-62
2022/07/07 01:07:36;;;;;;;0.30;0.30;;;17.70;94.50;;;;;;4961170;28;20031;-62
2022/07/07 01:10:06;;;;;;;0.08;0.08;;;17.70;94.40;;;;;;4979017;28;20038;-61
2022/07/07 01:12:40;;;;;;;0.90;0.85;;;17.70;94.40;;;;;;4992294;28;20076;-61
2022/07/07 01:15:09;;;;;;;0.20;0.20;;;17.60;94.50;;;;;;4988503;28;20034;-61
2022/07/07 01:17:35;;;;;;;0.00;0.00;;;17.50;95.00;;;;;;5004755;28;20035;-63
2022/07/07 01:20:04;;;;;;;0.25;0.25;;;17.50;95.80;;;;;;5004998;28;20034;-62
2022/07/07 01:22:34;;;;;;;0.00;0.00;;;17.40;96.10;;;;;;5004226;28;20105;-61
2022/07/07 01:24:59;;;;;;;0.00;0.00;;;17.40;96.20;;;;;;4989847;28;20068;-61
2022/07/07 01:27:25;;;;;;;0.05;0.05;;;17.40;96.60;;;;;;4992957;28;20062;-62
2022/07/07 01:29:54;;;;;;;0.08;0.08;;;17.30;96.40;;;;;;4993424;28;20038;-61
2022/07/07 01:32:22;;;;;;;1.20;0.43;;;17.20;97.20;;;;;;4991443;28;20046;-62
2022/07/07 01:34:49;;;;;;;5.88;0.28;;;17.20;97.30;;;;;;4991800;28;20475;-62
2022/07/07 01:37:15;;;;;;;0.00;0.00;;;17.20;97.60;;;;;;4993012;28;20045;-61
2022/07/07 01:39:42;;;;;;;0.15;0.15;;;17.00;98.20;;;;;;4992713;28;20041;-62
2022/07/07 01:42:09;;;;;;;0.50;0.30;;;16.90;98.60;;;;;;4975875;28;20114;-62
2022/07/07 01:44:38;;;;;;;0.10;0.10;;;16.90;99.10;;;;;;4973249;28;20019;-61
2022/07/07 01:47:05;;;;;;;0.17;0.17;;;16.80;99.90;;;;;;4973465;28;20031;-61
2022/07/07 01:49:33;;;;;;;2.17;0.60;;;16.60;99.90;;;;;;5004020;28;20031;-61
2022/07/07 01:52:01;;;;;;;0.00;0.00;;;16.60;99.90;;;;;;4973049;28;20035;-61
2022/07/07 01:54:27;;;;;;;0.00;0.00;;;16.70;99.90;;;;;;4973218;28;20038;-61
2022/07/07 01:56:54;;;;;;;0.00;0.00;;;16.80;99.90;;;;;;4973317;28;20031;-61
2022/07/07 01:59:20;;;;;;;0.90;0.63;;;16.80;99.90;;;;;;4972713;28;20039;-60
2022/07/07 02:01:46;;;;;;;0.20;0.20;;;16.80;99.90;;;;;;4973081;28;20522;-61
2022/07/07 02:04:12;;;;;;;1.65;0.47;;;16.90;99.90;;;;;;4972730;28;20121;-61
2022/07/07 02:06:38;;;;;;;0.10;0.10;;;16.80;99.90;;;;;;4973029;28;20058;-61
2022/07/07 02:09:05;;;;;;;0.20;0.20;;;16.70;99.90;;;;;;4972722;28;20038;-62
2022/07/07 02:11:31;;;;;;;1.80;0.90;;;16.70;99.90;;;;;;4972842;28;20042;-62
2022/07/07 02:13:58;;;;;;;0.30;0.30;;;16.60;99.90;;;;;;4972107;28;20031;-62
2022/07/07 02:16:25;;;;;;;0.00;0.00;;;16.60;99.90;;;;;;5007087;28;20034;-61
2022/07/07 02:19:03;;;;;;;0.00;0.00;;;16.60;99.90;;;;;;4991954;28;20042;-61
2022/07/07 02:21:29;;;;;;;0.00;0.00;;;16.50;99.90;;;;;;4992520;28;20600;-61
2022/07/07 02:23:57;;;;;;;0.03;0.03;;;16.40;99.90;;;;;;4991946;28;20030;-61
2022/07/07 02:26:23;;;;;;;1.77;0.93;;;16.40;99.90;;;;;;4991926;28;20057;-62
2022/07/07 02:28:49;;;;;;;0.08;0.08;;;16.40;99.90;;;;;;4990825;28;20066;-61
2022/07/07 02:31:15;;;;;;;0.00;0.00;;;16.30;99.90;;;;;;4991862;28;20066;-61
2022/07/07 02:33:42;;;;;;;0.47;0.43;;;16.30;99.90;;;;;;4974556;28;20557;-61
2022/07/07 02:36:08;;;;;;;0.28;0.28;;;16.40;99.90;;;;;;4992126;28;20398;-61
2022/07/07 02:38:36;;;;;;;0.00;0.00;;;16.40;99.90;;;;;;4990448;28;20055;-62
2022/07/07 02:41:02;;;;;;;0.40;0.40;;;16.40;99.90;;;;;;4991813;28;20394;-62
2022/07/07 02:43:28;;;;;;;0.30;0.30;;;16.30;99.90;;;;;;4990473;28;20031;-62
2022/07/07 02:45:54;;;;;;;0.08;0.08;;;16.30;99.90;;;;;;4990757;28;20786;-62
2022/07/07 02:48:23;;;;;;;0.00;0.00;;;16.30;99.90;;;;;;4991765;28;20042;-62
2022/07/07 02:50:50;;;;;;;0.20;0.20;;;16.30;99.90;;;;;;4974434;28;20105;-62
2022/07/07 02:53:17;;;;;;;0.35;0.25;;;16.20;99.90;;;;;;4991315;28;20430;-62
2022/07/07 02:55:44;;;;;;;0.00;0.00;;;16.20;99.90;;;;;;4991669;28;20037;-62
2022/07/07 02:58:12;;;;;;;0.73;0.30;;;16.20;99.90;;;;;;4990214;28;20026;-62
2022/07/07 03:00:38;;;;;;;0.10;0.10;;;16.20;99.90;;;;;;4992172;28;20033;-62
2022/07/07 03:03:10;;;;;;;0.10;0.10;;;16.30;99.90;;;;;;4980778;28;20141;-62
2022/07/07 03:05:37;;;;;;;2.38;0.52;;;16.30;99.90;;;;;;4971816;28;20038;-62
2022/07/07 03:08:03;;;;;;;0.20;0.20;;;16.30;99.90;;;;;;4991142;28;20070;-62
2022/07/07 03:10:29;;;;;;;0.00;0.00;;;16.30;99.90;;;;;;4982023;28;20690;-62
2022/07/07 03:12:54;;;;;;;0.00;0.00;;;16.20;99.90;;;;;;4986282;28;20068;-62
2022/07/07 03:15:20;;;;;;;1.92;1.17;;;16.30;99.90;;;;;;4982982;28;20042;-62
2022/07/07 03:17:49;;;;;;;0.00;0.00;;;16.20;99.90;;;;;;4991500;28;20041;-62
2022/07/07 03:20:16;;;;;;;0.00;0.00;;;16.20;99.90;;;;;;4990351;28;20113;-62
2022/07/07 03:22:42;;;;;;;0.52;0.52;;;16.30;99.90;;;;;;4990047;28;20109;-62
2022/07/07 03:25:11;;;;;;;0.00;0.00;;;16.40;99.90;;;;;;4979144;28;20097;-62
2022/07/07 03:27:38;;;;;;;0.00;0.00;;;16.30;99.90;;;;;;5006700;28;20090;-62
2022/07/07 03:30:06;;;;;;;0.00;0.00;;;16.20;99.90;;;;;;4990653;28;20035;-62
2022/07/07 03:32:32;;;;;;;0.05;0.05;;;16.30;99.90;;;;;;4975717;28;20122;-63
2022/07/07 03:34:58;;;;;;;0.00;0.00;;;16.30;99.90;;;;;;5006964;28;20431;-62
2022/07/07 03:37:24;;;;;;;0.20;0.20;;;16.20;99.90;;;;;;4975480;28;20085;-62
2022/07/07 03:39:50;;;;;;;0.00;0.00;;;16.20;99.90;;;;;;4975547;28;20031;-62
2022/07/07 03:42:16;;;;;;;0.00;0.00;;;16.20;99.90;;;;;;4986577;28;20085;-62
2022/07/07 03:44:42;;;;;;;0.10;0.08;;;16.20;99.90;;;;;;4995025;28;20442;-62
2022/07/07 03:47:08;;;;;;;0.00;0.00;;;16.20;99.90;;;;;;4995053;28;20022;-62
2022/07/07 03:49:34;;;;;;;0.98;0.75;;;16.20;99.90;;;;;;4994930;28;20029;-62
2022/07/07 03:51:59;;;;;;;0.00;0.00;;;16.20;99.90;;;;;;4994502;28;20034;-62
2022/07/07 03:54:26;;;;;;;0.00;0.00;;;16.10;99.90;;;;;;4993524;28;20049;-62
2022/07/07 03:56:52;;;;;;;0.00;0.00;;;16.10;99.90;;;;;;4993564;28;20202;-62
2022/07/07 03:59:18;;;;;;;0.00;0.00;;;16.10;99.90;;;;;;4994847;28;20534;-62
2022/07/07 04:01:45;;;;;;;0.00;0.00;;;16.10;99.90;;;;;;4994657;28;20498;-62
2022/07/07 04:04:15;;;;;;;0.00;0.00;;;16.00;99.90;;;;;;4993975;28;20158;-64
2022/07/07 04:06:42;;;;;;;2.92;1.55;;;16.00;99.90;;;;;;4983651;23;20089;-66
2022/07/07 04:09:08;;;;;;;0.00;0.00;;;16.00;99.90;;;;;;4956353;28;20109;-66
2022/07/07 04:11:34;;;;;;;1.00;0.32;;;16.00;99.90;;;;;;4972664;28;20113;-66
2022/07/07 04:14:01;;;;;;;0.00;0.00;;;16.00;99.90;;;;;;4955434;28;20038;-66
2022/07/07 04:16:29;;;;;;;0.38;0.38;;;15.90;99.90;;;;;;4958023;28;20162;-65
2022/07/07 04:18:55;;;;;;;0.35;0.35;;;15.90;99.90;;;;;;4954830;29;20054;-65
2022/07/07 04:21:21;;;;;;;0.52;0.52;;;15.90;99.90;;;;;;4944694;28;20043;-66
2022/07/07 04:23:47;;;;;;;0.40;0.40;;;15.90;99.90;;;;;;4954939;29;20400;-65
2022/07/07 04:26:13;;;;;;;0.00;0.00;;;15.90;99.90;;;;;;4969609;28;20110;-67
2022/07/07 04:28:38;;;;;;;0.05;0.05;;;15.90;99.90;;;;;;4954820;29;20507;-66
2022/07/07 04:31:04;;;;;;;0.77;0.38;;;15.90;99.90;;;;;;4969749;28;20035;-66
2022/07/07 04:33:30;;;;;;;0.32;0.28;;;15.90;99.90;;;;;;4954641;29;20519;-66
2022/07/07 04:35:56;;;;;;;0.30;0.17;;;16.00;99.90;;;;;;4954315;28;20031;-65
2022/07/07 04:38:21;;;;;;;0.20;0.20;;;16.00;99.90;;;;;;4953429;28;20134;-66
2022/07/07 04:40:47;;;;;;;0.03;0.03;;;15.90;99.90;;;;;;4954323;28;20073;-67
2022/07/07 04:43:13;;;;;;;0.10;0.10;;;15.90;99.90;;;;;;4931840;28;20047;-67
2022/07/07 04:45:39;;;;;;;0.00;0.00;;;15.90;99.90;;;;;;4955036;28;20035;-66
2022/07/07 04:48:04;;;;;;;0.75;0.52;;;15.90;99.90;;;;;;4954551;29;20377;-66
2022/07/07 04:50:30;;;;;;;1.08;0.75;;;15.90;99.90;;;;;;4969232;28;20102;-66
2022/07/07 04:52:56;;;;;;;0.47;0.28;;;16.00;99.90;;;;;;4952989;29;20031;-66
2022/07/07 04:55:22;;;;;;;0.00;0.00;;;15.90;99.90;;;;;;4954772;28;20160;-66
2022/07/07 04:57:48;;;;;;;0.28;0.28;;;15.90;99.90;;;;;;4954343;29;20039;-66
2022/07/07 05:00:14;;;;;;;0.82;0.80;;;16.00;99.90;;;;;;4954267;28;20074;-66
2022/07/07 05:02:40;;;;;;;0.00;0.00;;;16.00;99.90;;;;;;4953263;29;20059;-66
2022/07/07 05:05:07;;;;;;;0.10;0.10;;;16.10;99.90;;;;;;4952722;28;20078;-66
2022/07/07 05:07:33;;;;;;;0.32;0.32;;;16.20;99.90;;;;;;4954452;28;20491;-66
2022/07/07 05:09:59;;;;;;;0.00;0.00;;;16.20;99.90;;;;;;4968942;28;20035;-65
2022/07/07 05:12:25;;;;;;;0.00;0.00;;;16.30;99.90;;;;;;4968866;28;20641;-66
2022/07/07 05:14:51;;;;;;;0.00;0.00;;;16.40;99.90;;;;;;4959201;28;20049;-66
2022/07/07 05:17:17;;;;;;;0.00;0.00;;;16.40;99.90;;;;;;4955002;28;20464;-65
2022/07/07 05:19:43;;;;;;;0.13;0.10;;;16.40;99.90;;;;;;4952757;29;20074;-68
2022/07/07 05:22:09;;;;;;;0.05;0.05;;;16.40;99.90;;;;;;4953956;29;20126;-67
2022/07/07 05:24:35;;;;;;;0.10;0.10;;;16.40;99.90;;;;;;4954048;29;20527;-64
2022/07/07 05:27:01;;;;;;;0.03;0.03;;;16.30;99.90;;;;;;4985505;28;20035;-64
2022/07/07 05:29:27;;;;;;;0.20;0.20;;;16.30;99.90;;;;;;4953883;29;20043;-64
2022/07/07 05:31:53;;;;;;;0.00;0.00;;;16.40;99.90;;;;;;4952292;29;20031;-64
2022/07/07 05:34:19;;;;;;;0.05;0.05;;;16.50;99.90;;;;;;4968657;28;20035;-65
2022/07/07 05:36:45;;;;;;;0.00;0.00;;;16.50;99.90;;;;;;4984975;28;20038;-65
2022/07/07 05:39:13;;;;;;;2.55;1.45;;;16.50;99.90;;;;;;4953362;28;20035;-65
2022/07/07 05:41:40;;;;;;;0.10;0.10;;;16.50;99.90;;;;;;4954044;28;20019;-65
2022/07/07 05:44:05;;;;;;;0.38;0.38;;;16.40;99.90;;;;;;4951747;28;20129;-65
2022/07/07 05:46:31;;;;;;;0.00;0.00;;;16.40;99.90;;;;;;4968757;28;20028;-72
2022/07/07 05:48:57;;;;;;;0.00;0.00;;;16.40;99.90;;;;;;4952737;28;20043;-71
2022/07/07 05:51:23;;;;;;;0.10;0.10;;;16.50;99.90;;;;;;4954014;29;20125;-72
2022/07/07 05:53:49;;;;;;;0.00;0.00;;;16.60;99.90;;;;;;4952955;29;20411;-71
2022/07/07 05:56:14;;;;;;;0.10;0.10;;;16.70;99.90;;;;;;4953638;28;20031;-71
2022/07/07 05:58:40;;;;;;;0.25;0.25;;;16.70;99.90;;;;;;4953166;29;20045;-71
2022/07/07 06:01:06;;;;;;;0.00;0.00;;;16.80;99.90;;;;;;4952636;28;20443;-71
2022/07/07 06:03:32;;;;;;;1.25;0.95;;;16.90;99.90;;;;;;4953291;28;20027;-72
2022/07/07 06:05:57;;;;;;;0.05;0.05;;;17.00;99.90;;;;;;4953259;29;20036;-72
2022/07/07 06:08:24;;;;;;;0.03;0.00;;;17.00;99.90;;;;;;4953386;28;20030;-72
2022/07/07 06:10:49;;;;;;;0.28;0.25;;;17.10;99.90;;;;;;4953050;29;20038;-72
2022/07/07 06:13:15;;;;;;;0.00;0.00;;;17.10;99.90;;;;;;4952779;29;20391;-72
2022/07/07 06:15:41;;;;;;;0.30;0.22;;;17.20;99.90;;;;;;4951307;28;20031;-72
2022/07/07 06:18:07;;;;;;;0.00;0.00;;;17.30;99.90;;;;;;4952387;29;20114;-71
2022/07/07 06:20:32;;;;;;;0.35;0.35;;;17.50;99.90;;;;;;4953310;29;20519;-71
2022/07/07 06:22:58;;;;;;;0.00;0.00;;;17.60;99.90;;;;;;4952922;29;20034;-72
2022/07/07 06:25:26;;;;;;;0.10;0.10;;;17.60;99.90;;;;;;4953278;28;20027;-72
2022/07/07 06:27:52;;;;;;;0.85;0.85;;;17.70;99.90;;;;;;4953130;28;20077;-72
2022/07/07 06:30:18;;;;;;;0.00;0.00;;;17.80;99.90;;;;;;4967653;28;20526;-72
2022/07/07 06:32:44;;;;;;;0.05;0.05;;;17.90;99.90;;;;;;4967606;28;20134;-72
2022/07/07 06:35:10;;;;;;;0.00;0.00;;;17.90;99.90;;;;;;4967886;28;20046;-72
2022/07/07 06:37:36;;;;;;;1.65;1.55;;;18.00;99.90;;;;;;4955753;28;20031;-70
2022/07/07 06:40:03;;;;;;;0.60;0.22;;;18.10;99.90;;;;;;4971050;28;20034;-70
2022/07/07 06:42:28;;;;;;;0.30;0.30;;;18.00;99.90;;;;;;4971736;28;20058;-69
2022/07/07 06:44:54;;;;;;;0.00;0.00;;;18.10;99.90;;;;;;4972163;28;20475;-69
2022/07/07 06:47:20;;;;;;;0.00;0.00;;;18.20;99.90;;;;;;4972539;28;20041;-69
2022/07/07 06:49:46;;;;;;;0.45;0.40;;;18.10;99.90;;;;;;4971871;28;20027;-70
2022/07/07 06:52:14;;;;;;;0.57;0.25;;;18.10;99.90;;;;;;4972150;28;20046;-70
2022/07/07 06:54:40;;;;;;;0.20;0.20;;;18.20;99.90;;;;;;4971929;28;20126;-70
2022/07/07 06:57:06;;;;;;;0.10;0.10;;;18.30;99.90;;;;;;4972315;28;20503;-70
2022/07/07 06:59:33;;;;;;;0.08;0.08;;;18.40;99.90;;;;;;4973075;28;20475;-70
2022/07/07 07:01:59;;;;;;;0.00;0.00;;;18.40;99.90;;;;;;4978790;28;20042;-70
2022/07/07 07:04:25;;;;;;;0.30;0.30;;;18.40;99.90;;;;;;4977090;28;20071;-70
2022/07/07 07:06:50;;;;;;;0.20;0.10;;;18.30;99.90;;;;;;4978828;28;20035;-70
2022/07/07 07:09:16;;;;;;;0.00;0.00;;;18.30;99.90;;;;;;4978302;28;20110;-70
2022/07/07 07:11:42;;;;;;;1.55;0.88;;;18.40;99.90;;;;;;4978284;28;20042;-72
2022/07/07 07:14:08;;;;;;;0.45;0.45;;;18.40;99.90;;;;;;4978288;28;20034;-72
2022/07/07 07:16:34;;;;;;;8.57;1.65;;;18.40;99.90;;;;;;4977088;28;20035;-72
2022/07/07 07:19:00;;;;;;;0.00;0.00;;;18.30;99.90;;;;;;4978063;28;20034;-73
2022/07/07 07:21:25;;;;;;;0.10;0.10;;;18.30;99.90;;;;;;4978420;28;20049;-74
2022/07/07 07:23:52;;;;;;;0.00;0.00;;;18.40;99.90;;;;;;4977824;28;20031;-74
2022/07/07 07:26:18;;;;;;;0.13;0.08;;;18.30;99.90;;;;;;4978159;28;20037;-74
2022/07/07 07:28:44;;;;;;;1.45;0.32;;;18.30;99.90;;;;;;4977799;28;20437;-74
2022/07/07 07:31:09;;;;;;;0.00;0.00;;;18.40;99.90;;;;;;4978512;28;20042;-74
2022/07/07 07:33:35;;;;;;;0.32;0.30;;;18.40;99.90;;;;;;4978115;28;20065;-74
2022/07/07 07:36:03;;;;;;;0.00;0.00;;;18.50;99.90;;;;;;4978294;28;20509;-74
2022/07/07 07:38:29;;;;;;;0.00;0.00;;;18.50;99.90;;;;;;4978050;28;20466;-74
2022/07/07 07:40:55;;;;;;;1.55;0.90;;;18.50;99.90;;;;;;4976690;28;20022;-74
2022/07/07 07:43:21;;;;;;;0.00;0.00;;;18.70;99.90;;;;;;4976864;28;20027;-73
2022/07/07 07:45:47;;;;;;;0.00;0.00;;;18.80;99.90;;;;;;4978237;28;20197;-74
2022/07/07 07:48:12;;;;;;;2.05;0.75;;;18.80;99.60;;;;;;4978168;28;20483;-76
2022/07/07 07:50:39;;;;;;;6.13;1.75;;;18.70;99.80;;;;;;4978212;28;20037;-76
2022/07/07 07:53:06;;;;;;;0.00;0.00;;;18.70;99.80;;;;;;4960376;28;20129;-76
2022/07/07 07:55:32;;;;;;;0.00;0.00;;;18.90;99.70;;;;;;4976916;28;20035;-75
2022/07/07 07:57:58;;;;;;;0.00;0.00;;;19.00;99.40;;;;;;4978059;28;20041;-75
2022/07/07 08:00:24;;;;;;;0.65;0.35;;;19.00;99.60;;;;;;4976519;28;20026;-75
2022/07/07 08:02:50;;;;;;;0.00;0.00;;;19.10;99.50;;;;;;4976496;28;20418;-75
2022/07/07 08:05:18;;;;;;;0.98;0.77;;;19.30;99.20;;;;;;4977750;28;20035;-74
2022/07/07 08:07:44;;;;;;;0.00;0.00;;;19.40;99.20;;;;;;4960749;28;20039;-75
2022/07/07 08:10:14;;;;;;;0.50;0.50;;;19.50;99.20;;;;;;4976220;28;20039;-75
2022/07/07 08:12:41;;;;;;;0.00;0.00;;;19.50;99.30;;;;;;4955368;28;20050;-74
2022/07/07 08:15:08;;;;;;;0.10;0.10;;;19.40;99.90;;;;;;4956519;28;20027;-75
2022/07/07 08:17:34;;;;;;;0.00;0.00;;;19.60;99.60;;;;;;4973883;28;20038;-75
2022/07/07 08:20:00;;;;;;;0.00;0.00;;;19.80;99.70;;;;;;4974472;28;20089;-75
2022/07/07 08:22:26;;;;;;;2.05;0.50;;;19.90;99.80;;;;;;4958311;28;20047;-75
2022/07/07 08:24:53;;;;;;;0.28;0.28;;;19.70;99.80;;;;;;4936104;29;20066;-75
2022/07/07 08:27:19;;;;;;;0.40;0.40;;;19.70;99.80;;;;;;4936437;29;20023;-75
2022/07/07 08:29:45;;;;;;;0.80;0.70;;;19.80;99.90;;;;;;4950663;29;20122;-75
2022/07/07 08:32:12;;;;;;;0.70;0.60;;;19.80;99.90;;;;;;4935913;29;20106;-74
2022/07/07 08:34:39;;;;;;;0.10;0.10;;;19.90;99.70;;;;;;4950953;29;20479;-75
2022/07/07 08:37:05;;;;;;;0.00;0.00;;;19.90;99.50;;;;;;4936511;29;20082;-75
2022/07/07 08:39:32;;;;;;;0.03;0.03;;;19.90;99.70;;;;;;4986331;28;20586;-74
2022/07/07 08:41:59;;;;;;;0.00;0.00;;;20.00;99.70;;;;;;4974277;28;20057;-75
2022/07/07 08:44:26;;;;;;;0.20;0.20;;;19.90;99.90;;;;;;4972872;28;20545;-74
2022/07/07 08:46:52;;;;;;;0.10;0.10;;;19.90;99.90;;;;;;4974353;28;20031;-75
2022/07/07 08:49:18;;;;;;;0.47;0.47;;;20.00;99.90;;;;;;4974194;28;20043;-74
2022/07/07 08:51:45;;;;;;;1.05;0.95;;;20.00;99.90;;;;;;4973091;28;20237;-74
2022/07/07 08:54:14;;;;;;;0.00;0.00;;;20.00;99.90;;;;;;4973876;28;20038;-75
2022/07/07 08:56:41;;;;;;;0.17;0.17;;;20.20;99.90;;;;;;4973056;28;20065;-75
2022/07/07 08:59:10;;;;;;;6.55;0.43;;;20.30;99.90;;;;;;4956563;28;20097;-75
2022/07/07 09:01:36;;;;;;;0.22;0.22;;;20.40;99.90;;;;;;4972927;28;20030;-74
2022/07/07 09:04:03;;;;;;;0.47;0.45;;;20.50;99.90;;;;;;4973577;28;20423;-74
2022/07/07 09:06:30;;;;;;;0.00;0.00;;;20.60;99.90;;;;;;4972818;28;20040;-74
2022/07/07 09:08:56;;;;;;;0.00;0.00;;;20.70;99.90;;;;;;4972374;28;20031;-75
2022/07/07 09:11:33;;;;;;;0.17;0.17;;;20.70;99.70;;;;;;4974065;28;20037;-74
2022/07/07 09:14:14;;;;;;;0.22;0.05;;;20.50;99.90;;;;;;4973798;28;20145;-75
2022/07/07 09:16:40;;;;;;;0.05;0.05;;;20.40;99.90;;;;;;4972387;28;20380;-75
2022/07/07 09:19:20;;;;;;;0.90;0.57;;;20.30;99.90;;;;;;4973010;28;20031;-75
2022/07/07 09:21:47;;;;;;;0.00;0.00;;;20.30;99.90;;;;;;4972557;28;20386;-74
2022/07/07 09:24:14;;;;;;;0.00;0.00;;;20.40;99.90;;;;;;4972066;28;20389;-75
2022/07/07 09:26:46;;;;;;;0.47;0.32;;;20.50;99.90;;;;;;4973342;28;20052;-75
2022/07/07 09:29:21;;;;;;;0.20;0.20;;;20.50;99.90;;;;;;4972079;28;20673;-75
2022/07/07 09:32:01;;;;;;;0.10;0.10;;;20.60;99.90;;;;;;4973528;28;20053;-74
2022/07/07 09:34:29;;;;;;;1.75;0.47;;;20.70;99.90;;;;;;4973325;28;20038;-74
2022/07/07 09:39:47;;;;;;;3.72;0.30;;;20.60;99.90;;;;;;4952527;29;20038;-75
2022/07/07 09:42:29;;;;;;;0.25;0.20;;;20.70;99.90;;;;;;4968183;28;20471;-75
2022/07/07 09:45:00;;;;;;;0.10;0.10;;;20.70;99.90;;;;;;4968565;28;20035;-74
2022/07/07 09:47:27;;;;;;;0.00;0.00;;;20.80;99.90;;;;;;4954309;29;20027;-74
2022/07/07 09:50:07;;;;;;;0.22;0.22;;;20.70;99.90;;;;;;4953701;29;20074;-74
2022/07/07 09:52:37;;;;;;;0.67;0.67;;;20.80;99.90;;;;;;4953354;28;20031;-75
2022/07/07 09:55:08;;;;;;;0.00;0.00;;;20.90;99.90;;;;;;4968345;28;20366;-75
2022/07/07 09:57:34;;;;;;;;;;;21.20;99.90;;;;;;4968396;28;20078;-75
2022/07/07 10:00:00;;;;;;;0.00;0.00;;;21.20;99.20;;;;;;4952381;28;20367;-75
2022/07/07 10:02:29;;;;;;;0.25;0.25;;;21.40;99.50;;;;;;4953569;29;20031;-75
2022/07/07 10:07:34;;;;;;;0.00;0.00;;;21.20;99.10;;;;;;4984937;28;20066;-78
2022/07/07 10:10:12;;;;;;;1.17;1.08;;;21.30;99.20;;;;;;4991192;28;20030;-78
2022/07/07 10:12:46;;;;;;;0.10;0.10;;;21.30;99.10;;;;;;4985049;28;20475;-78
2022/07/07 10:15:13;;;;;;;0.13;0.13;;;21.50;98.90;;;;;;4972516;28;20031;-79
2022/07/07 10:17:41;;;;;;;0.13;0.13;;;21.50;98.60;;;;;;4939983;28;20106;-78
2022/07/07 10:20:08;;;;;;;0.10;0.10;;;21.40;98.50;;;;;;4956048;28;20035;-79
2022/07/07 10:22:35;;;;;;;0.00;0.00;;;21.50;98.80;;;;;;4973524;28;20079;-80
2022/07/07 10:25:09;;;;;;;0.00;0.00;;;21.40;98.40;;;;;;4960063;28;20050;-79
2022/07/07 10:27:35;;;;;;;0.40;0.25;;;21.40;98.50;;;;;;4944260;28;20487;-80
2022/07/07 10:30:04;;;;;;;0.05;0.05;;;21.50;98.70;;;;;;4955581;28;20057;-80
2022/07/07 10:32:40;;;;;;;0.10;0.10;;;21.30;98.70;;;;;;4972705;28;20117;-82
2022/07/07 10:35:13;;;;;;;0.60;0.60;;;21.20;98.90;;;;;;4939287;28;20157;-81
2022/07/07 10:37:48;;;;;;;0.00;0.00;;;21.20;99.20;;;;;;4972746;28;20038;-80
2022/07/07 10:40:26;;;;;;;0.35;0.20;;;21.40;99.10;;;;;;4955944;28;20030;-80
2022/07/07 10:43:33;;;;;;;0.47;0.47;;;21.40;99.50;;;;;;4955083;28;20034;-80
2022/07/07 10:46:01;;;;;;;0.00;0.00;;;21.30;99.50;;;;;;4972733;28;20085;-80
2022/07/07 10:48:45;;;;;;;5.18;0.52;;;21.20;99.70;;;;;;4955891;28;20040;-80
2022/07/07 10:51:19;;;;;;;0.25;0.25;;;21.30;99.60;;;;;;4973562;28;20598;-81
2022/07/07 10:54:12;;;;;;;0.52;0.52;;;21.30;99.60;;;;;;4943848;28;20558;-81
2022/07/07 10:56:53;;;;;;;0.20;0.20;;;21.50;99.40;;;;;;4973201;28;20059;-81
2022/07/07 10:59:21;;;;;;;2.08;1.25;;;21.70;99.20;;;;;;4972207;28;20384;-81
2022/07/07 11:02:02;;;;;;;0.22;0.22;;;21.90;98.90;;;;;;4955335;28;20027;-82
2022/07/07 11:04:43;;;;;;;;;;;22.10;98.60;;;;;;4971673;28;20110;-81
2022/07/07 11:07:16;;;;;;;0.40;0.20;;;22.30;98.10;;;;;;4975042;28;20350;-81
2022/07/07 11:10:06;;;;;;;1.00;0.55;;;22.40;98.10;;;;;;4959646;28;20042;-81
2022/07/07 11:12:45;;;;;;;0.00;0.00;;;22.30;98.00;;;;;;4984036;28;20038;-81
2022/07/07 11:15:27;;;;;;;0.00;0.00;;;22.30;97.90;;;;;;4957747;28;20050;-80
2022/07/07 11:17:52;;;;;;;0.00;0.00;;;22.20;98.10;;;;;;4991354;28;20046;-80
2022/07/07 11:20:21;;;;;;;4.57;1.70;;;22.30;98.20;;;;;;4990746;28;20058;-81
2022/07/07 11:22:54;;;;;;;0.00;0.00;;;22.00;98.20;;;;;;4993966;28;20034;-81
2022/07/07 11:25:35;;;;;;;0.05;0.03;;;21.40;99.40;;;;;;4976364;28;20035;-81
2022/07/07 11:28:05;;;;;;;;;;;20.60;99.90;;;;;;4977777;28;20030;-81
2022/07/07 11:30:31;;;;;;;0.08;0.05;;;20.20;99.90;;;;;;4976048;28;19894;-80
2022/07/07 11:32:59;;;;;;;0.00;0.00;;;19.90;99.90;;;;;;4994342;28;20038;-79
2022/07/07 11:35:37;;;;;;;0.52;0.35;;;19.60;99.90;;;;;;4977660;28;20042;-80
2022/07/07 11:38:09;;;;;;;0.00;0.00;;;19.20;99.90;;;;;;4978484;28;20035;-80
2022/07/07 11:40:38;;;;;;;0.52;0.40;;;19.00;99.90;;;;;;4967261;28;20038;-81
2022/07/07 11:43:19;;;;;;;0.00;0.00;;;18.70;99.90;;;;;;4963597;28;20035;-81
2022/07/07 11:45:47;;;;;;;0.00;0.00;;;18.70;99.90;;;;;;4964451;28;20097;-81
2022/07/07 11:48:25;;;;;;;0.00;0.00;;;18.40;99.90;;;;;;4966006;28;20035;-81
2022/07/07 11:50:50;;;;;;;0.00;0.00;;;18.50;99.90;;;;;;4966267;28;20035;-81
2022/07/07 11:53:22;;;;;;;0.00;0.00;;;18.40;99.90;;;;;;4979497;28;20038;-82
2022/07/07 11:55:55;;;;;;;0.20;0.20;;;18.40;99.90;;;;;;4980136;28;20622;-80
2022/07/07 11:58:23;;;;;;;0.20;0.20;;;18.40;99.90;;;;;;4945652;28;20030;-81
2022/07/07 12:00:56;;;;;;;0.00;0.00;;;18.50;99.90;;;;;;4977353;28;20035;-81
2022/07/07 12:03:33;;;;;;;0.00;0.00;;;18.50;99.90;;;;;;4959780;28;20478;-80
2022/07/07 12:05:59;;;;;;;0.00;0.00;;;18.50;99.90;;;;;;4958887;28;20035;-80
2022/07/07 12:08:33;;;;;;;0.00;0.00;;;18.50;99.90;;;;;;4975625;28;20038;-80
2022/07/07 12:11:00;;;;;;;0.08;0.08;;;18.60;99.90;;;;;;4944832;29;20030;-80
2022/07/07 12:13:27;;;;;;;0.65;0.47;;;18.60;99.90;;;;;;4939143;29;20122;-80
2022/07/07 12:15:53;;;;;;;0.10;0.10;;;18.70;99.90;;;;;;4946251;28;20027;-80
2022/07/07 12:18:38;;;;;;;0.32;0.20;;;18.70;99.90;;;;;;4958685;28;20026;-80
2022/07/07 12:21:10;;;;;;;0.00;0.00;;;18.90;99.90;;;;;;4975652;28;20035;-80
2022/07/07 12:23:43;;;;;;;0.43;0.38;;;19.10;99.90;;;;;;4958777;28;20047;-80
2022/07/07 12:26:10;;;;;;;0.03;0.00;;;19.40;99.90;;;;;;4975706;28;20031;-80
2022/07/07 12:28:37;;;;;;;0.10;0.10;;;19.60;99.90;;;;;;4975369;28;20089;-81
2022/07/07 12:31:04;;;;;;;0.10;0.10;;;19.70;99.90;;;;;;4975149;28;20038;-80
2022/07/07 12:33:38;;;;;;;0.10;0.10;;;19.70;99.90;;;;;;4958164;28;20450;-80
2022/07/07 12:36:17;;;;;;;0.00;0.00;;;19.70;99.90;;;;;;4975389;28;20031;-81
2022/07/07 12:38:43;;;;;;;0.10;0.10;;;19.70;99.90;;;;;;4975267;28;20035;-81
2022/07/07 12:41:25;;;;;;;0.65;0.22;;;19.70;99.90;;;;;;4975238;28;20088;-81
2022/07/07 12:43:54;;;;;;;0.00;0.00;;;19.80;99.90;;;;;;4975363;28;20084;-81
2022/07/07 12:46:20;;;;;;;0.08;0.08;;;19.90;99.90;;;;;;4974989;28;20026;-81
2022/07/07 12:48:50;;;;;;;0.10;0.10;;;20.10;99.90;;;;;;4957564;28;20041;-80
2022/07/07 12:51:22;;;;;;;0.00;0.00;;;20.30;99.90;;;;;;4974911;28;20109;-82
2022/07/07 12:53:47;;;;;;;0.20;0.10;;;20.60;99.90;;;;;;4974781;28;20117;-81
2022/07/07 12:56:15;;;;;;;0.00;0.00;;;21.00;99.90;;;;;;4974712;28;20114;-81
2022/07/07 12:59:00;;;;;;;0.00;0.00;;;21.40;99.90;;;;;;4974019;28;20031;-81